Time;durP1;ratioP1;P1;durP2;ratioP2;P2;SDS_P1;SDS_P2;PMS_P1;PMS_P2;Temp;Humidity;BMP_temperature;BMP_pressure;BME280_temperature;BME280_humidity;BME280_pressure;Samples;Min_cycle;Max_cycle;Signal;HPM_P1;HPM_P2
2022/03/25 00:02:12;;;;;;;108.20;57.35;;;;;;;;;;5008254;28;20048;-89
2022/03/25 00:04:38;;;;;;;154.30;80.10;;;;;;;;;;5012096;28;20022;-90
2022/03/25 00:07:04;;;;;;;169.98;81.55;;;;;;;;;;5014861;28;20026;-88
2022/03/25 00:09:31;;;;;;;161.32;84.53;;;;;;;;;;5014883;28;20518;-89
2022/03/25 00:11:57;;;;;;;209.65;104.28;;;;;;;;;;5031155;28;20038;-89
2022/03/25 00:14:23;;;;;;;151.30;79.13;;;;;;;;;;5016340;28;20013;-89
2022/03/25 00:16:50;;;;;;;118.18;61.42;;;;;;;;;;5008743;28;20022;-89
2022/03/25 00:19:17;;;;;;;98.35;54.58;;;;;;;;;;5035021;28;20025;-90
2022/03/25 00:21:44;;;;;;;89.07;50.33;;;;;;;;;;5019957;28;20339;-90
2022/03/25 00:24:10;;;;;;;85.60;48.40;;;;;;;;;;5020475;28;20018;-89
2022/03/25 00:26:36;;;;;;;83.70;48.45;;;;;;;;;;5018703;28;20026;-90
2022/03/25 00:29:03;;;;;;;92.15;47.72;;;;;;;;;;5026009;28;20022;-90
2022/03/25 00:31:29;;;;;;;88.40;49.30;;;;;;;;;;5030127;28;20014;-89
2022/03/25 00:33:55;;;;;;;94.25;50.30;;;;;;;;;;5028643;28;20045;-89
2022/03/25 00:36:23;;;;;;;68.93;40.67;;;;;;;;;;5033307;28;20072;-89
2022/03/25 00:38:50;;;;;;;97.68;51.65;;;;;;;;;;5028957;28;20025;-90
2022/03/25 00:41:17;;;;;;;108.00;54.67;;;;;;;;;;5026846;28;20106;-89
2022/03/25 00:43:51;;;;;;;80.50;43.60;;;;;;;;;;5023279;28;20033;-89
2022/03/25 00:46:17;;;;;;;65.68;38.88;;;;;;;;;;5027679;28;20481;-89
2022/03/25 00:48:44;;;;;;;72.03;37.90;;;;;;;;;;5023035;28;20077;-90
2022/03/25 00:51:10;;;;;;;74.20;37.55;;;;;;;;;;5022598;28;20476;-90
2022/03/25 00:53:37;;;;;;;78.68;43.33;;;;;;;;;;5019790;28;20129;-89
2022/03/25 00:56:03;;;;;;;71.00;41.00;;;;;;;;;;5001015;28;20096;-89
2022/03/25 00:58:30;;;;;;;93.32;50.50;;;;;;;;;;5045103;28;20028;-89
2022/03/25 01:00:56;;;;;;;121.47;65.20;;;;;;;;;;5028020;28;20034;-90
2022/03/25 01:03:23;;;;;;;201.32;101.30;;;;;;;;;;5030719;28;20495;-89
2022/03/25 01:05:49;;;;;;;199.25;99.88;;;;;;;;;;5033742;28;20061;-90
2022/03/25 01:08:18;;;;;;;202.18;101.25;;;;;;;;;;5027928;28;20031;-90
2022/03/25 01:10:44;;;;;;;159.73;84.72;;;;;;;;;;4992717;28;20045;-89
2022/03/25 01:13:10;;;;;;;207.70;99.85;;;;;;;;;;5034115;28;20033;-90
2022/03/25 01:15:37;;;;;;;200.15;100.00;;;;;;;;;;5028253;28;20161;-90
2022/03/25 01:18:03;;;;;;;196.45;94.80;;;;;;;;;;5021624;28;20018;-89
2022/03/25 01:20:30;;;;;;;180.02;85.18;;;;;;;;;;5005220;28;20026;-87
2022/03/25 01:22:56;;;;;;;162.80;79.85;;;;;;;;;;5003349;28;20117;-86
2022/03/25 01:25:23;;;;;;;174.95;80.68;;;;;;;;;;5026757;28;20026;-88
2022/03/25 01:27:50;;;;;;;168.00;76.32;;;;;;;;;;4999359;28;20036;-88
2022/03/25 01:30:17;;;;;;;150.90;72.25;;;;;;;;;;4992897;28;20050;-88
2022/03/25 01:32:44;;;;;;;150.80;71.88;;;;;;;;;;4999550;28;20026;-88
2022/03/25 01:35:11;;;;;;;149.57;71.30;;;;;;;;;;5011869;28;20104;-88
2022/03/25 01:37:38;;;;;;;136.55;65.93;;;;;;;;;;5005443;28;20020;-89
2022/03/25 01:40:09;;;;;;;141.80;63.80;;;;;;;;;;5029346;28;20026;-89
2022/03/25 01:42:41;;;;;;;145.93;68.03;;;;;;;;;;5009667;28;20029;-88
2022/03/25 01:45:09;;;;;;;156.13;66.90;;;;;;;;;;5023739;28;21073;-88
2022/03/25 01:47:36;;;;;;;152.85;66.00;;;;;;;;;;5024464;28;20026;-89
2022/03/25 01:50:03;;;;;;;156.93;66.75;;;;;;;;;;5010513;28;20472;-87
2022/03/25 01:52:30;;;;;;;167.30;67.10;;;;;;;;;;5018251;28;20029;-89
2022/03/25 01:55:13;;;;;;;154.55;64.35;;;;;;;;;;5025536;28;20014;-89
2022/03/25 01:57:40;;;;;;;173.35;65.05;;;;;;;;;;5019618;28;20040;-88
2022/03/25 02:00:06;;;;;;;157.68;65.43;;;;;;;;;;5010075;28;20108;-90
2022/03/25 02:02:32;;;;;;;135.55;63.83;;;;;;;;;;5013975;28;20036;-88
2022/03/25 02:05:00;;;;;;;124.32;54.50;;;;;;;;;;5026913;28;20034;-89
2022/03/25 02:07:26;;;;;;;109.75;52.67;;;;;;;;;;5009304;28;20464;-87
2022/03/25 02:09:52;;;;;;;108.78;51.33;;;;;;;;;;5013802;28;20029;-89
2022/03/25 02:12:18;;;;;;;112.32;48.85;;;;;;;;;;5014111;28;20112;-89
2022/03/25 02:14:45;;;;;;;95.88;46.72;;;;;;;;;;5016503;28;20037;-89
2022/03/25 02:17:11;;;;;;;83.38;41.65;;;;;;;;;;5011494;28;20075;-89
2022/03/25 02:22:54;;;;;;;72.97;38.47;;;;;;;;;;4973922;28;20046;-88
2022/03/25 02:25:21;;;;;;;78.43;39.88;;;;;;;;;;5025329;28;20022;-87
2022/03/25 02:27:48;;;;;;;65.00;35.38;;;;;;;;;;5023079;28;20026;-89
2022/03/25 02:30:14;;;;;;;71.07;37.97;;;;;;;;;;5013821;28;20072;-89
2022/03/25 02:32:40;;;;;;;71.28;39.60;;;;;;;;;;5011050;28;20029;-90
2022/03/25 02:35:10;;;;;;;70.05;37.03;;;;;;;;;;5012628;28;20081;-88
2022/03/25 02:37:36;;;;;;;62.55;32.72;;;;;;;;;;5014513;28;20018;-88
2022/03/25 02:40:03;;;;;;;55.40;33.65;;;;;;;;;;5015547;28;20030;-89
2022/03/25 02:42:29;;;;;;;51.53;31.88;;;;;;;;;;5010098;28;20417;-90
2022/03/25 02:44:56;;;;;;;48.95;28.75;;;;;;;;;;5029973;28;20051;-90
2022/03/25 02:47:25;;;;;;;53.78;31.27;;;;;;;;;;5014422;28;20026;-89
2022/03/25 02:49:51;;;;;;;53.55;31.35;;;;;;;;;;5018400;28;20054;-87
2022/03/25 02:52:20;;;;;;;58.55;36.50;;;;;;;;;;5018606;28;20026;-88
2022/03/25 02:54:56;;;;;;;65.13;35.92;;;;;;;;;;5020286;28;20453;-89
2022/03/25 02:57:22;;;;;;;63.65;36.22;;;;;;;;;;5029544;28;20029;-92
2022/03/25 03:00:08;;;;;;;69.97;36.90;;;;;;;;;;5021764;28;20030;-90
2022/03/25 03:02:35;;;;;;;57.38;33.53;;;;;;;;;;5017423;28;20038;-91
2022/03/25 03:05:38;;;;;;;54.70;34.22;;;;;;;;;;5013087;28;20041;-91
2022/03/25 03:08:10;;;;;;;51.17;32.28;;;;;;;;;;5011002;28;20042;-94
2022/03/25 03:14:00;;;;;;;49.33;29.45;;;;;;;;;;5027424;28;20048;-90
2022/03/25 03:16:44;;;;;;;44.55;29.33;;;;;;;;;;4972516;28;20043;-91
2022/03/25 03:19:10;;;;;;;50.75;34.90;;;;;;;;;;5036590;28;20033;-88
2022/03/25 03:21:40;;;;;;;52.10;36.88;;;;;;;;;;5016824;28;20026;-91
2022/03/25 03:24:07;;;;;;;53.05;35.78;;;;;;;;;;5009875;28;20109;-90
2022/03/25 03:26:33;;;;;;;43.97;29.58;;;;;;;;;;5010531;28;20018;-90
2022/03/25 03:29:00;;;;;;;44.20;30.42;;;;;;;;;;5008725;28;20060;-89
2022/03/25 03:31:26;;;;;;;52.85;34.55;;;;;;;;;;5014770;28;20030;-91
2022/03/25 03:34:19;;;;;;;50.53;30.98;;;;;;;;;;5014965;28;20026;-90
2022/03/25 03:37:03;;;;;;;47.65;29.27;;;;;;;;;;5014633;28;20356;-92
2022/03/25 03:39:29;;;;;;;52.35;32.25;;;;;;;;;;5013836;28;20022;-90
2022/03/25 03:41:56;;;;;;;48.95;31.85;;;;;;;;;;5011655;28;20044;-90
2022/03/25 03:44:23;;;;;;;45.00;28.95;;;;;;;;;;5024312;28;20108;-91
2022/03/25 03:46:49;;;;;;;49.13;30.00;;;;;;;;;;5015262;28;20014;-89
2022/03/25 03:49:23;;;;;;;53.22;29.40;;;;;;;;;;5010383;28;20184;-89
2022/03/25 03:51:49;;;;;;;45.35;27.52;;;;;;;;;;5010959;28;20026;-88
2022/03/25 03:54:16;;;;;;;44.63;27.80;;;;;;;;;;5009556;28;20033;-89
2022/03/25 03:56:42;;;;;;;52.08;32.22;;;;;;;;;;5014129;28;20041;-88
2022/03/25 03:59:08;;;;;;;49.78;31.00;;;;;;;;;;5014543;28;20018;-90
2022/03/25 04:01:35;;;;;;;54.33;35.67;;;;;;;;;;5014201;28;20041;-88
2022/03/25 04:04:05;;;;;;;44.58;30.05;;;;;;;;;;5011372;28;20022;-89
2022/03/25 04:06:32;;;;;;;44.80;29.80;;;;;;;;;;5019169;28;20025;-88
2022/03/25 04:08:58;;;;;;;47.08;29.55;;;;;;;;;;5006174;28;20033;-92
2022/03/25 04:11:25;;;;;;;52.17;34.72;;;;;;;;;;4997842;28;20029;-90
2022/03/25 04:13:52;;;;;;;47.80;31.35;;;;;;;;;;5015805;28;20076;-89
2022/03/25 04:16:19;;;;;;;48.53;33.67;;;;;;;;;;5004984;28;20033;-89
2022/03/25 04:18:57;;;;;;;;;;;;;;;;;;;;;
2022/03/25 04:21:24;;;;;;;41.38;26.25;;;;;;;;;;5011927;28;20503;-91
2022/03/25 04:23:51;;;;;;;40.30;26.98;;;;;;;;;;4995520;28;20022;-91
2022/03/25 04:26:17;;;;;;;35.25;24.65;;;;;;;;;;5011524;28;20121;-91
2022/03/25 04:28:44;;;;;;;34.88;24.27;;;;;;;;;;5008684;28;20445;-90
2022/03/25 04:31:10;;;;;;;37.58;28.23;;;;;;;;;;5013429;28;20028;-90
2022/03/25 04:33:40;;;;;;;44.08;30.35;;;;;;;;;;5017330;28;20026;-90
2022/03/25 04:36:08;;;;;;;36.15;26.58;;;;;;;;;;5021085;28;20026;-89
2022/03/25 04:38:44;;;;;;;;;;;;;;;;;;;;;
2022/03/25 04:41:13;;;;;;;39.00;26.02;;;;;;;;;;5009940;28;20030;-90
2022/03/25 04:43:40;;;;;;;31.38;24.00;;;;;;;;;;5008798;28;20025;-88
2022/03/25 04:46:08;;;;;;;24.77;18.98;;;;;;;;;;5004063;28;20037;-88
2022/03/25 04:48:42;;;;;;;28.48;22.88;;;;;;;;;;5010616;28;20208;-91
2022/03/25 04:51:28;;;;;;;;;;;;;;;;;;;;;
2022/03/25 04:53:55;;;;;;;29.20;20.55;;;;;;;;;;5051131;28;20037;-90
2022/03/25 04:56:24;;;;;;;25.48;19.13;;;;;;;;;;5038092;28;20033;-92
2022/03/25 04:58:50;;;;;;;34.38;21.80;;;;;;;;;;5034065;28;20017;-91
2022/03/25 05:01:20;;;;;;;24.38;19.70;;;;;;;;;;5014097;28;20029;-90
2022/03/25 05:03:46;;;;;;;27.00;18.50;;;;;;;;;;5032045;28;20037;-90
2022/03/25 05:06:12;;;;;;;24.33;18.63;;;;;;;;;;5037311;28;20108;-91
2022/03/25 05:08:39;;;;;;;23.70;17.70;;;;;;;;;;5021901;28;20168;-93
2022/03/25 05:11:09;;;;;;;26.85;19.00;;;;;;;;;;5034700;28;20029;-91
2022/03/25 05:13:36;;;;;;;25.35;17.38;;;;;;;;;;5016271;28;20041;-88
2022/03/25 05:16:12;;;;;;;22.08;16.60;;;;;;;;;;5035442;28;20025;-88
2022/03/25 05:18:39;;;;;;;23.27;17.35;;;;;;;;;;5031985;28;20533;-87
2022/03/25 05:21:06;;;;;;;23.60;17.67;;;;;;;;;;5015841;28;20043;-88
2022/03/25 05:23:41;;;;;;;26.35;17.40;;;;;;;;;;5033204;28;20037;-87
2022/03/25 05:26:10;;;;;;;23.45;16.55;;;;;;;;;;5037398;28;20083;-89
2022/03/25 05:28:38;;;;;;;19.13;14.88;;;;;;;;;;5033953;28;20076;-91
2022/03/25 05:31:24;;;;;;;21.48;15.27;;;;;;;;;;5029213;28;20464;-89
2022/03/25 05:33:53;;;;;;;22.38;16.60;;;;;;;;;;5013087;28;20452;-88
2022/03/25 05:36:21;;;;;;;21.88;16.38;;;;;;;;;;5030938;28;20030;-89
2022/03/25 05:38:51;;;;;;;26.50;19.67;;;;;;;;;;5028673;28;20040;-90
2022/03/25 05:41:20;;;;;;;26.20;19.20;;;;;;;;;;5015362;28;20528;-89
2022/03/25 05:43:47;;;;;;;20.90;15.63;;;;;;;;;;5029607;28;20028;-88
2022/03/25 05:46:17;;;;;;;24.60;17.20;;;;;;;;;;5031991;28;20033;-89
2022/03/25 05:49:04;;;;;;;21.77;16.92;;;;;;;;;;5009277;28;20042;-88
2022/03/25 05:51:30;;;;;;;22.50;17.13;;;;;;;;;;5013402;28;20041;-89
2022/03/25 05:53:56;;;;;;;25.52;17.13;;;;;;;;;;5009247;28;20030;-90
2022/03/25 05:56:29;;;;;;;27.67;18.88;;;;;;;;;;5015721;28;20140;-89
2022/03/25 05:58:55;;;;;;;26.58;17.65;;;;;;;;;;5016357;28;20044;-89
2022/03/25 06:01:22;;;;;;;26.08;18.15;;;;;;;;;;5010188;28;20380;-89
2022/03/25 06:03:50;;;;;;;24.40;15.65;;;;;;;;;;5013502;28;20037;-90
2022/03/25 06:06:20;;;;;;;26.30;18.77;;;;;;;;;;5012120;28;20060;-89
2022/03/25 06:08:46;;;;;;;20.17;15.52;;;;;;;;;;5016048;28;20054;-89
2022/03/25 06:11:12;;;;;;;24.55;17.40;;;;;;;;;;5007984;28;20049;-90
2022/03/25 06:13:40;;;;;;;24.60;16.98;;;;;;;;;;5017954;28;20038;-90
2022/03/25 06:16:06;;;;;;;26.98;16.75;;;;;;;;;;5020140;28;20014;-90
2022/03/25 06:18:56;;;;;;;;;;;;;;;;;;;;;
2022/03/25 06:21:23;;;;;;;26.63;16.88;;;;;;;;;;5008881;28;20014;-89
2022/03/25 06:24:10;;;;;;;26.67;17.00;;;;;;;;;;5007262;28;20125;-90
2022/03/25 06:26:36;;;;;;;26.30;14.88;;;;;;;;;;5005998;28;20054;-90
2022/03/25 06:29:08;;;;;;;32.22;16.38;;;;;;;;;;5007625;28;20065;-89
2022/03/25 06:31:35;;;;;;;39.92;17.63;;;;;;;;;;5010749;28;20607;-90
2022/03/25 06:34:01;;;;;;;28.02;14.88;;;;;;;;;;5005363;28;20030;-88
2022/03/25 06:36:28;;;;;;;19.75;15.52;;;;;;;;;;4996446;28;20022;-89
2022/03/25 06:38:54;;;;;;;18.30;13.77;;;;;;;;;;5009412;28;20053;-89
2022/03/25 06:41:20;;;;;;;41.10;18.75;;;;;;;;;;5011895;28;20072;-90
2022/03/25 06:43:50;;;;;;;47.97;19.60;;;;;;;;;;5014024;28;20506;-89
2022/03/25 06:46:19;;;;;;;48.85;19.65;;;;;;;;;;5013203;28;20029;-89
2022/03/25 06:48:46;;;;;;;48.03;17.70;;;;;;;;;;5014761;28;20057;-91
2022/03/25 06:51:34;;;;;;;42.33;18.63;;;;;;;;;;5000189;28;20420;-92
2022/03/25 06:53:59;;;;;;;36.83;17.25;;;;;;;;;;5013557;28;20025;-91
2022/03/25 06:56:27;;;;;;;51.90;19.10;;;;;;;;;;5014086;28;20054;-90
2022/03/25 06:58:53;;;;;;;54.20;19.33;;;;;;;;;;5014968;28;20022;-89
2022/03/25 07:01:20;;;;;;;48.00;19.27;;;;;;;;;;5014196;28;20025;-91
2022/03/25 07:03:46;;;;;;;53.30;19.27;;;;;;;;;;5025496;28;20053;-86
2022/03/25 07:06:13;;;;;;;60.25;22.05;;;;;;;;;;4999712;28;20029;-90
2022/03/25 07:08:44;;;;;;;26.30;15.75;;;;;;;;;;5004140;28;20040;-91
2022/03/25 07:11:16;;;;;;;31.08;15.02;;;;;;;;;;5010003;28;20084;-91
2022/03/25 07:14:03;;;;;;;37.05;18.30;;;;;;;;;;4994976;28;20045;-89
2022/03/25 07:16:29;;;;;;;35.60;17.75;;;;;;;;;;5013154;28;20030;-90
2022/03/25 07:18:55;;;;;;;25.20;14.52;;;;;;;;;;5017621;28;20126;-92
2022/03/25 07:21:22;;;;;;;25.98;15.07;;;;;;;;;;5001201;28;20033;-90
2022/03/25 07:23:57;;;;;;;23.85;17.05;;;;;;;;;;5016457;28;20033;-90
2022/03/25 07:26:26;;;;;;;18.90;15.23;;;;;;;;;;5018850;28;20026;-91
2022/03/25 07:29:00;;;;;;;24.23;17.33;;;;;;;;;;5023892;28;20485;-92
2022/03/25 07:31:32;;;;;;;30.10;17.42;;;;;;;;;;5014381;28;20026;-87
2022/03/25 07:33:59;;;;;;;28.90;17.77;;;;;;;;;;5016167;28;20022;-89
2022/03/25 07:36:25;;;;;;;25.92;15.23;;;;;;;;;;5027676;28;20370;-89
2022/03/25 07:38:52;;;;;;;34.17;17.33;;;;;;;;;;5014820;28;20464;-89
2022/03/25 07:41:19;;;;;;;28.35;16.95;;;;;;;;;;5018172;28;20053;-89
2022/03/25 07:43:46;;;;;;;27.88;17.35;;;;;;;;;;5005126;28;20021;-90
2022/03/25 07:46:18;;;;;;;26.63;17.08;;;;;;;;;;4990082;28;20030;-91
2022/03/25 07:48:53;;;;;;;39.47;21.25;;;;;;;;;;5005183;28;20080;-90
2022/03/25 07:54:28;;;;;;;28.08;18.13;;;;;;;;;;5054072;28;20098;-90
2022/03/25 07:56:58;;;;;;;31.67;18.67;;;;;;;;;;5022003;28;20089;-91
2022/03/25 07:59:32;;;;;;;22.38;17.42;;;;;;;;;;5038040;28;20013;-90
2022/03/25 08:02:01;;;;;;;27.45;17.65;;;;;;;;;;5032769;28;20032;-92
2022/03/25 08:04:37;;;;;;;;;;;;;;;;;;;;;
2022/03/25 08:07:14;;;;;;;28.60;16.90;;;;;;;;;;5049088;28;20048;-88
2022/03/25 08:09:41;;;;;;;23.42;16.15;;;;;;;;;;5041939;28;20104;-91
2022/03/25 08:12:13;;;;;;;23.92;15.35;;;;;;;;;;5044872;28;20024;-90
2022/03/25 08:14:40;;;;;;;21.25;15.20;;;;;;;;;;5018627;28;20029;-90
2022/03/25 08:17:08;;;;;;;21.80;16.15;;;;;;;;;;5019967;28;20449;-91
2022/03/25 08:19:37;;;;;;;52.97;18.52;;;;;;;;;;5020353;28;20032;-89
2022/03/25 08:22:03;;;;;;;39.72;19.85;;;;;;;;;;5016202;28;20021;-91
2022/03/25 08:28:18;;;;;;;59.58;25.10;;;;;;;;;;5037636;28;20032;-90
2022/03/25 08:30:13;;;;;;;51.65;21.23;;;;;;;;;;5019313;28;20363;-90
2022/03/25 08:32:50;;;;;;;;;;;;;;;;;;;;;
2022/03/25 08:35:16;;;;;;;31.20;18.05;;;;;;;;;;5030476;28;20013;-93
2022/03/25 08:37:43;;;;;;;38.28;18.70;;;;;;;;;;5015910;28;20468;-91
2022/03/25 08:40:10;;;;;;;27.58;16.27;;;;;;;;;;5021117;28;20021;-91
2022/03/25 08:42:36;;;;;;;21.50;15.48;;;;;;;;;;5020383;28;20013;-92
2022/03/25 08:45:03;;;;;;;24.77;15.75;;;;;;;;;;5019308;28;20435;-91
2022/03/25 08:47:29;;;;;;;23.75;15.07;;;;;;;;;;5019746;28;20026;-91
2022/03/25 08:49:55;;;;;;;30.27;20.15;;;;;;;;;;5024104;28;20046;-91
2022/03/25 08:52:25;;;;;;;53.72;23.55;;;;;;;;;;5018124;28;20036;-90
2022/03/25 08:54:52;;;;;;;35.90;17.73;;;;;;;;;;5019126;28;20369;-92
2022/03/25 08:57:19;;;;;;;42.20;22.27;;;;;;;;;;5017761;28;20056;-92
2022/03/25 08:59:45;;;;;;;35.22;19.17;;;;;;;;;;5017425;28;20472;-91
2022/03/25 09:02:11;;;;;;;31.85;16.48;;;;;;;;;;5020080;28;20018;-92
2022/03/25 09:04:40;;;;;;;27.73;16.45;;;;;;;;;;5022855;28;20882;-91
2022/03/25 09:07:07;;;;;;;24.33;14.70;;;;;;;;;;5019262;28;20026;-90
2022/03/25 09:09:37;;;;;;;26.75;16.40;;;;;;;;;;5024181;28;20022;-91
2022/03/25 09:12:08;;;;;;;25.02;15.70;;;;;;;;;;5015845;28;20050;-90
2022/03/25 09:14:34;;;;;;;27.73;17.05;;;;;;;;;;5016275;28;20014;-92
2022/03/25 09:17:00;;;;;;;32.80;17.08;;;;;;;;;;5015858;28;20037;-92
2022/03/25 09:19:27;;;;;;;35.70;18.02;;;;;;;;;;5019294;28;20029;-92
2022/03/25 09:21:53;;;;;;;43.90;22.33;;;;;;;;;;5014891;28;20018;-89
2022/03/25 09:24:19;;;;;;;35.88;20.35;;;;;;;;;;5018618;28;20079;-91
2022/03/25 09:26:49;;;;;;;33.72;17.60;;;;;;;;;;5019036;28;20033;-92
2022/03/25 09:32:21;;;;;;;31.02;16.45;;;;;;;;;;5040689;23;20489;-76
2022/03/25 09:37:34;;;;;;;24.08;15.52;;;;;;;;;;5068481;28;20070;-78
2022/03/25 09:40:03;;;;;;;22.83;14.30;;;;;;;;;;5072246;28;20708;-76
2022/03/25 09:42:31;;;;;;;30.27;15.90;;;;;;;;;;5068850;28;20037;-78
2022/03/25 09:44:57;;;;;;;29.60;17.42;;;;;;;;;;5064602;28;20028;-78
2022/03/25 09:47:23;;;;;;;36.70;19.80;;;;;;;;;;5069560;28;20029;-77
2022/03/25 09:49:52;;;;;;;33.17;18.58;;;;;;;;;;5069666;28;20032;-77
2022/03/25 09:52:18;;;;;;;34.70;16.50;;;;;;;;;;5063471;28;20036;-78
2022/03/25 09:54:45;;;;;;;27.13;17.23;;;;;;;;;;5064316;28;20038;-78
2022/03/25 09:57:11;;;;;;;34.35;17.42;;;;;;;;;;5072794;28;20109;-77
2022/03/25 09:59:37;;;;;;;28.00;16.90;;;;;;;;;;5064414;28;20032;-78
2022/03/25 10:02:04;;;;;;;21.63;15.20;;;;;;;;;;5062043;28;20035;-78
2022/03/25 10:04:43;;;;;;;21.58;14.73;;;;;;;;;;5062794;28;20498;-80
2022/03/25 10:07:19;;;;;;;23.15;14.75;;;;;;;;;;5066942;28;20114;-78
2022/03/25 10:09:46;;;;;;;25.58;17.42;;;;;;;;;;5063715;28;20544;-77
2022/03/25 10:12:20;;;;;;;27.60;15.57;;;;;;;;;;5064177;28;20028;-77
2022/03/25 10:14:49;;;;;;;20.85;13.68;;;;;;;;;;5064779;28;20052;-78
2022/03/25 10:17:15;;;;;;;26.40;17.17;;;;;;;;;;5068172;28;20021;-78
2022/03/25 10:19:54;;;;;;;20.38;14.13;;;;;;;;;;5052499;28;20135;-79
2022/03/25 10:22:21;;;;;;;33.00;15.93;;;;;;;;;;5062522;28;20021;-79
2022/03/25 10:24:49;;;;;;;24.45;13.90;;;;;;;;;;5068394;28;20029;-78
2022/03/25 10:27:17;;;;;;;31.30;15.32;;;;;;;;;;5068808;28;20118;-79
2022/03/25 10:29:45;;;;;;;26.42;14.65;;;;;;;;;;5068558;28;20047;-78
2022/03/25 10:32:13;;;;;;;30.98;14.98;;;;;;;;;;5065807;28;20289;-78
2022/03/25 10:34:42;;;;;;;21.73;12.32;;;;;;;;;;5062893;28;20045;-77
2022/03/25 10:37:10;;;;;;;21.65;11.60;;;;;;;;;;5063351;28;20028;-78
2022/03/25 10:39:36;;;;;;;23.38;13.13;;;;;;;;;;5061075;28;20031;-78
2022/03/25 10:42:04;;;;;;;31.00;15.05;;;;;;;;;;5060134;28;20062;-79
2022/03/25 10:44:34;;;;;;;24.70;13.65;;;;;;;;;;5046875;28;20479;-79
2022/03/25 10:47:00;;;;;;;31.58;14.52;;;;;;;;;;5064167;28;20028;-78
2022/03/25 10:49:38;;;;;;;28.40;13.77;;;;;;;;;;5062875;28;20135;-79
2022/03/25 10:52:06;;;;;;;24.50;13.48;;;;;;;;;;5064386;28;20112;-77
2022/03/25 10:54:32;;;;;;;26.67;14.73;;;;;;;;;;5065788;28;20538;-78
2022/03/25 10:57:02;;;;;;;23.27;13.98;;;;;;;;;;5064447;28;20036;-80
2022/03/25 10:59:35;;;;;;;24.40;14.48;;;;;;;;;;5077719;28;20566;-78
2022/03/25 11:02:06;;;;;;;16.65;12.00;;;;;;;;;;5061038;28;20131;-78
2022/03/25 11:04:33;;;;;;;23.95;13.02;;;;;;;;;;5063907;28;20033;-79
2022/03/25 11:07:01;;;;;;;24.52;13.95;;;;;;;;;;5061519;28;20059;-80
2022/03/25 11:09:28;;;;;;;21.08;12.23;;;;;;;;;;5061866;28;20036;-78
2022/03/25 11:11:55;;;;;;;26.08;12.15;;;;;;;;;;5061152;28;20029;-84
2022/03/25 11:14:21;;;;;;;21.88;12.13;;;;;;;;;;5060026;28;20024;-83
2022/03/25 11:16:59;;;;;;;28.77;13.60;;;;;;;;;;5062331;28;20027;-84
2022/03/25 11:19:26;;;;;;;25.13;13.70;;;;;;;;;;5063249;28;20027;-83
2022/03/25 11:21:54;;;;;;;21.08;12.68;;;;;;;;;;5064798;28;20052;-82
2022/03/25 11:24:20;;;;;;;22.95;12.13;;;;;;;;;;5062508;28;20028;-83
2022/03/25 11:26:48;;;;;;;19.45;13.45;;;;;;;;;;5061537;28;20029;-84
2022/03/25 11:29:15;;;;;;;22.42;13.38;;;;;;;;;;5063227;28;20024;-84
2022/03/25 11:32:00;;;;;;;18.75;11.85;;;;;;;;;;5064167;28;20032;-84
2022/03/25 11:34:27;;;;;;;23.70;12.23;;;;;;;;;;5098846;27;20044;-83
2022/03/25 11:37:11;;;;;;;25.25;12.73;;;;;;;;;;5101661;28;20717;-84
2022/03/25 11:39:38;;;;;;;23.55;12.60;;;;;;;;;;5101868;28;20028;-83
2022/03/25 11:42:06;;;;;;;29.85;15.68;;;;;;;;;;5098990;28;20024;-83
2022/03/25 11:44:33;;;;;;;26.63;13.88;;;;;;;;;;5106174;28;20049;-85
2022/03/25 11:46:59;;;;;;;25.40;13.15;;;;;;;;;;5103363;28;20443;-83
2022/03/25 11:49:27;;;;;;;28.02;13.75;;;;;;;;;;5098495;28;20043;-82
2022/03/25 11:51:53;;;;;;;24.73;13.30;;;;;;;;;;5100534;28;20028;-86
2022/03/25 11:54:38;;;;;;;24.45;12.63;;;;;;;;;;5101489;28;20537;-83
2022/03/25 11:57:05;;;;;;;24.42;12.40;;;;;;;;;;5099066;28;20030;-84
2022/03/25 11:59:48;;;;;;;18.00;11.68;;;;;;;;;;5097395;28;20031;-85
2022/03/25 12:02:26;;;;;;;25.60;13.15;;;;;;;;;;5100793;28;20411;-84
2022/03/25 12:04:53;;;;;;;25.88;13.27;;;;;;;;;;5099973;28;20028;-83
2022/03/25 12:07:19;;;;;;;21.52;12.18;;;;;;;;;;5096244;28;20023;-81
2022/03/25 12:09:46;;;;;;;20.73;12.50;;;;;;;;;;5100042;28;20062;-83
2022/03/25 12:12:13;;;;;;;21.13;12.52;;;;;;;;;;5100534;28;20049;-82
2022/03/25 12:14:58;;;;;;;28.48;14.05;;;;;;;;;;5102220;28;20107;-83
2022/03/25 12:17:24;;;;;;;30.67;14.30;;;;;;;;;;5101281;28;20051;-84
2022/03/25 12:19:55;;;;;;;29.40;13.90;;;;;;;;;;5104970;28;20434;-84
2022/03/25 12:22:21;;;;;;;28.92;15.25;;;;;;;;;;5107661;28;20046;-84
2022/03/25 12:24:51;;;;;;;24.92;13.63;;;;;;;;;;5105163;28;20369;-86
2022/03/25 12:27:18;;;;;;;29.60;14.73;;;;;;;;;;5109091;28;20055;-86
2022/03/25 12:29:48;;;;;;;26.88;14.00;;;;;;;;;;5105644;28;20484;-84
2022/03/25 12:32:15;;;;;;;27.60;13.70;;;;;;;;;;5103534;28;20034;-83
2022/03/25 12:35:00;;;;;;;29.10;13.15;;;;;;;;;;5105379;28;20035;-84
2022/03/25 12:37:29;;;;;;;28.90;14.00;;;;;;;;;;5106066;28;20020;-85
2022/03/25 12:39:56;;;;;;;30.80;17.33;;;;;;;;;;5084617;28;20375;-83
2022/03/25 12:42:22;;;;;;;30.60;17.15;;;;;;;;;;5103751;28;20141;-85
2022/03/25 12:44:55;;;;;;;23.40;15.68;;;;;;;;;;5104156;28;21344;-83
2022/03/25 12:47:31;;;;;;;40.53;24.50;;;;;;;;;;5106860;28;20023;-85
2022/03/25 12:49:58;;;;;;;29.73;18.77;;;;;;;;;;5101056;28;20470;-84
2022/03/25 12:52:25;;;;;;;25.52;17.27;;;;;;;;;;5106934;28;20147;-83
2022/03/25 12:54:52;;;;;;;27.73;16.25;;;;;;;;;;5103653;28;20020;-85
2022/03/25 12:57:30;;;;;;;25.95;16.55;;;;;;;;;;5105647;28;20496;-84
2022/03/25 12:59:57;;;;;;;30.55;20.08;;;;;;;;;;5105174;28;20023;-85
2022/03/25 13:02:33;;;;;;;34.38;22.60;;;;;;;;;;5108919;28;20032;-82
2022/03/25 13:05:16;;;;;;;34.85;24.08;;;;;;;;;;5107509;28;20033;-84
2022/03/25 13:07:53;;;;;;;39.22;26.30;;;;;;;;;;5103758;28;20062;-84
2022/03/25 13:10:19;;;;;;;37.00;26.58;;;;;;;;;;5083890;28;20047;-83
2022/03/25 13:12:52;;;;;;;40.47;29.20;;;;;;;;;;5103395;28;20101;-83
2022/03/25 13:15:18;;;;;;;41.35;30.40;;;;;;;;;;5102722;28;20023;-85
2022/03/25 13:17:48;;;;;;;45.78;30.75;;;;;;;;;;5106181;28;20143;-84
2022/03/25 13:20:14;;;;;;;44.88;30.70;;;;;;;;;;5109091;28;20483;-85
2022/03/25 13:22:54;;;;;;;40.85;30.05;;;;;;;;;;5108337;28;20468;-85
2022/03/25 13:25:36;;;;;;;46.13;32.00;;;;;;;;;;5105950;28;20023;-83
2022/03/25 13:28:03;;;;;;;50.70;32.70;;;;;;;;;;5108502;28;20034;-83
2022/03/25 13:30:30;;;;;;;55.38;35.28;;;;;;;;;;5112173;28;20405;-83
2022/03/25 13:32:58;;;;;;;60.45;36.95;;;;;;;;;;5108556;28;20039;-84
2022/03/25 13:35:30;;;;;;;49.17;35.28;;;;;;;;;;5102351;28;20023;-83
2022/03/25 13:38:00;;;;;;;51.88;36.05;;;;;;;;;;5106815;28;20073;-83
2022/03/25 13:40:39;;;;;;;51.25;35.38;;;;;;;;;;5106135;28;20081;-84
2022/03/25 13:43:08;;;;;;;55.53;38.08;;;;;;;;;;5101634;28;20032;-81
2022/03/25 13:45:35;;;;;;;61.38;38.38;;;;;;;;;;5105466;28;20019;-82
2022/03/25 13:48:11;;;;;;;57.75;36.65;;;;;;;;;;5105551;28;20098;-82
2022/03/25 13:50:47;;;;;;;50.75;36.13;;;;;;;;;;5105351;28;20042;-83
2022/03/25 13:53:14;;;;;;;50.13;33.97;;;;;;;;;;5105093;28;20486;-84
2022/03/25 13:55:42;;;;;;;50.05;36.67;;;;;;;;;;5102971;28;20044;-83
2022/03/25 13:58:15;;;;;;;57.85;39.08;;;;;;;;;;5104949;28;20031;-83
2022/03/25 14:00:42;;;;;;;58.53;39.95;;;;;;;;;;5101561;28;20469;-84
2022/03/25 14:03:09;;;;;;;66.68;42.53;;;;;;;;;;5105389;28;20496;-85
2022/03/25 14:05:36;;;;;;;58.95;41.70;;;;;;;;;;5088961;28;20365;-84
2022/03/25 14:08:05;;;;;;;62.65;40.70;;;;;;;;;;5109120;28;20030;-83
2022/03/25 14:10:31;;;;;;;66.55;42.17;;;;;;;;;;5107491;28;20024;-84
2022/03/25 14:13:07;;;;;;;69.90;44.20;;;;;;;;;;5102726;28;20403;-83
2022/03/25 14:15:34;;;;;;;70.15;49.33;;;;;;;;;;5102931;28;20064;-83
2022/03/25 14:18:00;;;;;;;71.68;50.85;;;;;;;;;;5104458;28;20028;-84
2022/03/25 14:20:31;;;;;;;76.03;50.75;;;;;;;;;;5107162;28;20027;-84
2022/03/25 14:23:02;;;;;;;91.65;55.95;;;;;;;;;;5108942;28;20049;-84
2022/03/25 14:25:33;;;;;;;86.85;55.33;;;;;;;;;;5103926;28;20088;-83
2022/03/25 14:28:05;;;;;;;94.93;60.70;;;;;;;;;;5108452;28;20170;-84
2022/03/25 14:30:32;;;;;;;84.25;61.00;;;;;;;;;;5105958;28;20032;-84
2022/03/25 14:32:58;;;;;;;93.88;60.28;;;;;;;;;;5098968;28;20488;-84
2022/03/25 14:35:24;;;;;;;96.05;60.63;;;;;;;;;;5110455;28;20024;-85
2022/03/25 14:37:51;;;;;;;94.57;61.55;;;;;;;;;;5105226;28;20019;-85
2022/03/25 14:40:18;;;;;;;90.20;64.28;;;;;;;;;;5112470;28;20381;-84
2022/03/25 14:42:44;;;;;;;117.82;75.20;;;;;;;;;;5109913;28;20031;-83
2022/03/25 14:45:11;;;;;;;113.93;72.43;;;;;;;;;;5107889;28;20059;-84
2022/03/25 14:47:38;;;;;;;126.50;80.20;;;;;;;;;;5110307;28;20026;-83
2022/03/25 14:50:05;;;;;;;128.80;85.75;;;;;;;;;;5110484;28;20035;-84
2022/03/25 14:52:32;;;;;;;129.73;92.45;;;;;;;;;;5110420;28;20026;-84